Lapel, IN

8:10 PM EDT on May 27, 2015 (GMT -0400)
Lapel Indiana | | Change Station
CLOSE
Current Station
Personal Weather Station
Location: Anderson, IN
Elevation: 847 ft
Nearby Weather Stations

Elev 847 ft 40.06 °N, 85.81 °W | Updated 10 seconds ago

Partly Cloudy
Partly Cloudy
72.9 °F
Feels Like 75 °F
N
0.0
Wind Variable Wind from West
Gusts 0.0 mph

Today
High -- | Low -- °F
--% Chance of Precip.
Yesterday
High -- | Low -- °F
Precip. -- in
6:18 AM 9:02 PM
Waxing Gibbous, 71% visible
Pressure 30.07 in
Visibility 10.0 miles
Clouds Scattered Clouds 5000 ft
Heat Index 75 °F
Dew Point 64 °F
Humidity 73%
Rainfall 0.04 in
Snow Depth Not available.
UV 0 out of 12
Pollen 9.00 out of 12
Air Quality Not available.
Flu Activity Sporadic
METAR KMQJ 272356Z AUTO 30011KT 10SM SCT050 23/12 A3007 RMK AO1

More Conditions Fewer Conditions

Pressure 30.07 in
Visibility 10.0 miles
Clouds Scattered Clouds 5000 ft
Heat Index 75 °F
Dew Point 64 °F
Humidity 73%
Rainfall 0.04 in
Snow Depth Not available.
UV 0 out of 12
Pollen 9.00 out of 12
Air Quality Not available.
Flu Activity Sporadic
METAR KMQJ 272356Z AUTO 30011KT 10SM SCT050 23/12 A3007 RMK AO1

More Conditions Fewer Conditions

10-Day Weather Forecast

Almanac

Astronomy

May. 27, 2015 Rise Set
Actual Time
Civil Twilight
Nautical Twilight
Astronomical Twilight
Moon
Length of Visible Light
Length of Day
Tomorrow will be .
, % of the Moon is Illuminated

Today's Extremes

State Highs State Lows

Community

WunderPhotos

Upload Photos

1,824,829 photos uploaded!

WunderBlogs® & News

Nearby

Air Quality

  Air Quality AQ Index Pollutant
Not available.

Snow Depth

Station Depth Elevation

Earthquake Activity

City Distance Mag. Time & Date
Minimum magnitude displayed is 2.5.

Coastal Water Temperatures

Place Temperature

Stations

Nearby Weather Stations

Station Location Temp. Windchill Dew Point Humidity Wind Precip. Elev Updated Type